Time;durP1;ratioP1;P1;durP2;ratioP2;P2;SDS_P1;SDS_P2;PMS_P1;PMS_P2;Temp;Humidity;BMP_temperature;BMP_pressure;BME280_temperature;BME280_humidity;BME280_pressure;Samples;Min_cycle;Max_cycle;Signal;HPM_P1;HPM_P2
2020/12/16 00:02:37;;;;;;;48.73;16.80;;;;;;;;;;5031177;28;20223;-79
2020/12/16 00:05:42;;;;;;;45.83;18.07;;;;;;;;;;5029315;28;20219;-80
2020/12/16 00:08:47;;;;;;;47.70;16.70;;;;;;;;;;5028459;28;20219;-81
2020/12/16 00:11:52;;;;;;;41.53;16.10;;;;;;;;;;5027863;28;20223;-81
2020/12/16 00:14:57;;;;;;;45.83;15.67;;;;;;;;;;5033792;28;20204;-80
2020/12/16 00:18:01;;;;;;;42.97;16.27;;;;;;;;;;5027527;28;20607;-79
2020/12/16 00:21:06;;;;;;;46.90;17.50;;;;;;;;;;5031205;28;20253;-80
2020/12/16 00:24:11;;;;;;;42.23;15.93;;;;;;;;;;5028715;28;20620;-79
2020/12/16 00:27:16;;;;;;;46.90;17.23;;;;;;;;;;5028617;28;20231;-81
2020/12/16 00:30:20;;;;;;;47.97;17.37;;;;;;;;;;5033854;28;20562;-81
2020/12/16 00:33:25;;;;;;;46.87;17.10;;;;;;;;;;5033644;28;20212;-80
2020/12/16 00:36:30;;;;;;;39.20;15.40;;;;;;;;;;5033303;28;20352;-80
2020/12/16 00:39:35;;;;;;;43.70;16.73;;;;;;;;;;5035783;28;20214;-80
2020/12/16 00:42:39;;;;;;;48.47;17.07;;;;;;;;;;5038354;28;20222;-79
2020/12/16 00:45:44;;;;;;;45.60;16.90;;;;;;;;;;5038324;28;20223;-79
2020/12/16 00:48:49;;;;;;;39.73;15.80;;;;;;;;;;5033301;28;20219;-81
2020/12/16 00:51:54;;;;;;;45.50;16.53;;;;;;;;;;5033389;28;20434;-82
2020/12/16 00:54:59;;;;;;;44.60;15.37;;;;;;;;;;5032998;28;20199;-81
2020/12/16 00:58:04;;;;;;;45.63;16.57;;;;;;;;;;5031876;28;20208;-81
2020/12/16 01:01:13;;;;;;;43.13;15.87;;;;;;;;;;5030574;28;20243;-80
2020/12/16 01:04:18;;;;;;;47.53;16.77;;;;;;;;;;5030337;28;20215;-80
2020/12/16 01:07:23;;;;;;;44.40;15.90;;;;;;;;;;5030621;28;20235;-80
2020/12/16 01:10:29;;;;;;;43.63;16.10;;;;;;;;;;5033418;28;20342;-80
2020/12/16 01:13:34;;;;;;;40.17;15.13;;;;;;;;;;5040697;28;20222;-79
2020/12/16 01:16:39;;;;;;;42.43;16.23;;;;;;;;;;5059456;28;20219;-78
2020/12/16 01:19:50;;;;;;;41.80;15.97;;;;;;;;;;5047922;28;20203;-80
2020/12/16 01:22:54;;;;;;;43.67;15.53;;;;;;;;;;5028461;28;20207;-80
2020/12/16 01:26:00;;;;;;;48.07;16.27;;;;;;;;;;5034281;28;20730;-80
2020/12/16 01:29:07;;;;;;;44.03;15.93;;;;;;;;;;5034169;28;20311;-80
2020/12/16 01:32:15;;;;;;;40.47;15.97;;;;;;;;;;5034379;28;20242;-80
2020/12/16 01:35:19;;;;;;;46.60;16.50;;;;;;;;;;5034325;28;20211;-78
2020/12/16 01:38:24;;;;;;;39.90;15.20;;;;;;;;;;5037256;28;20223;-79
2020/12/16 01:41:33;;;;;;;41.23;14.77;;;;;;;;;;5033876;28;20230;-80
2020/12/16 01:44:38;;;;;;;41.63;16.03;;;;;;;;;;5033496;28;20258;-80
2020/12/16 01:47:45;;;;;;;44.23;15.30;;;;;;;;;;5033145;28;20215;-79
2020/12/16 01:50:54;;;;;;;41.87;16.20;;;;;;;;;;5033838;28;20235;-80
2020/12/16 01:53:59;;;;;;;41.33;15.43;;;;;;;;;;5033746;28;20251;-79
2020/12/16 01:57:05;;;;;;;41.80;16.13;;;;;;;;;;5029128;28;20211;-80
2020/12/16 02:00:21;;;;;;;39.77;15.00;;;;;;;;;;5036656;28;20211;-81
2020/12/16 02:03:32;;;;;;;35.97;15.13;;;;;;;;;;5035128;28;20203;-81
2020/12/16 02:06:44;;;;;;;38.60;14.90;;;;;;;;;;5036056;28;20718;-80
2020/12/16 02:09:49;;;;;;;46.30;16.23;;;;;;;;;;5035513;28;20239;-81
2020/12/16 02:12:59;;;;;;;44.50;15.40;;;;;;;;;;5035314;28;20211;-81
2020/12/16 02:16:04;;;;;;;44.60;16.47;;;;;;;;;;5034802;28;20279;-81
2020/12/16 02:19:10;;;;;;;40.90;16.37;;;;;;;;;;5035304;28;20227;-81
2020/12/16 02:22:26;;;;;;;42.73;15.60;;;;;;;;;;5034032;28;20236;-81
2020/12/16 02:25:32;;;;;;;41.20;15.40;;;;;;;;;;5035068;28;20226;-80
2020/12/16 02:28:41;;;;;;;42.93;16.30;;;;;;;;;;5016678;28;20260;-80
2020/12/16 02:31:48;;;;;;;37.77;15.10;;;;;;;;;;5034701;28;20285;-81
2020/12/16 02:34:53;;;;;;;41.37;15.63;;;;;;;;;;5039446;28;20219;-79
2020/12/16 02:37:58;;;;;;;46.07;16.20;;;;;;;;;;5039665;28;20215;-81
2020/12/16 02:41:04;;;;;;;42.40;15.80;;;;;;;;;;5037875;28;20231;-81
2020/12/16 02:44:13;;;;;;;35.30;13.73;;;;;;;;;;5040654;28;20227;-81
2020/12/16 02:47:29;;;;;;;36.63;14.43;;;;;;;;;;5031473;28;20270;-80
2020/12/16 02:50:34;;;;;;;39.87;14.97;;;;;;;;;;5045631;28;20219;-79
2020/12/16 02:53:39;;;;;;;40.10;15.47;;;;;;;;;;5039188;28;20207;-81
2020/12/16 02:57:03;;;;;;;43.70;14.13;;;;;;;;;;5033718;28;20747;-80
2020/12/16 03:00:10;;;;;;;39.97;14.73;;;;;;;;;;5043838;28;20219;-80
2020/12/16 03:03:41;;;;;;;35.53;15.23;;;;;;;;;;5044968;28;20255;-79
2020/12/16 03:07:02;;;;;;;39.50;14.67;;;;;;;;;;5044461;28;20294;-79
2020/12/16 03:10:11;;;;;;;39.87;15.20;;;;;;;;;;5038326;28;20580;-78
2020/12/16 03:13:16;;;;;;;38.13;15.30;;;;;;;;;;5034295;28;20588;-78
2020/12/16 03:16:21;;;;;;;36.00;15.30;;;;;;;;;;5035055;28;20204;-79
2020/12/16 03:19:31;;;;;;;41.83;15.40;;;;;;;;;;5033077;28;20262;-79
2020/12/16 03:22:36;;;;;;;35.60;14.20;;;;;;;;;;5034048;28;20281;-78
2020/12/16 03:26:12;;;;;;;39.47;14.03;;;;;;;;;;5028458;28;20216;-79
2020/12/16 03:29:32;;;;;;;40.30;14.37;;;;;;;;;;5029897;28;20261;-79
2020/12/16 03:33:00;;;;;;;41.27;15.03;;;;;;;;;;5021289;28;20215;-79
2020/12/16 03:36:18;;;;;;;38.80;14.10;;;;;;;;;;5034237;28;20207;-80
2020/12/16 03:39:25;;;;;;;32.57;14.43;;;;;;;;;;5029739;28;20773;-81
2020/12/16 03:42:30;;;;;;;37.70;15.03;;;;;;;;;;5027602;28;20227;-80
2020/12/16 03:45:36;;;;;;;34.27;14.73;;;;;;;;;;5028872;28;20203;-80
2020/12/16 03:48:42;;;;;;;42.47;14.63;;;;;;;;;;5026994;28;20231;-80
2020/12/16 03:51:46;;;;;;;44.10;16.30;;;;;;;;;;5036444;28;20231;-78
2020/12/16 03:54:51;;;;;;;40.50;15.00;;;;;;;;;;5027974;28;20687;-80
2020/12/16 03:58:31;;;;;;;36.10;14.33;;;;;;;;;;5033190;28;20215;-81
2020/12/16 04:01:51;;;;;;;35.00;14.33;;;;;;;;;;5033609;28;20710;-80
2020/12/16 04:04:56;;;;;;;39.57;14.30;;;;;;;;;;5033560;28;20207;-80
2020/12/16 04:08:00;;;;;;;41.93;15.03;;;;;;;;;;5034958;28;20202;-80
2020/12/16 04:11:23;;;;;;;42.33;14.83;;;;;;;;;;5034304;28;20239;-80
2020/12/16 04:14:35;;;;;;;41.23;13.90;;;;;;;;;;5033714;28;20210;-80
2020/12/16 04:17:43;;;;;;;34.40;14.30;;;;;;;;;;5034183;28;20215;-81
2020/12/16 04:20:53;;;;;;;36.17;14.53;;;;;;;;;;5030837;28;20262;-80
2020/12/16 04:23:58;;;;;;;39.27;14.53;;;;;;;;;;5039189;28;20208;-81
2020/12/16 04:27:25;;;;;;;36.60;13.70;;;;;;;;;;5045229;28;20234;-79
2020/12/16 04:30:30;;;;;;;38.70;14.20;;;;;;;;;;5029540;28;20285;-80
2020/12/16 04:33:37;;;;;;;32.20;13.30;;;;;;;;;;5028079;28;20606;-79
2020/12/16 04:36:42;;;;;;;28.60;12.47;;;;;;;;;;5033735;28;20216;-79
2020/12/16 04:39:47;;;;;;;36.43;13.07;;;;;;;;;;5036995;28;20263;-79
2020/12/16 04:43:04;;;;;;;28.70;12.47;;;;;;;;;;5032736;28;20235;-80
2020/12/16 04:46:10;;;;;;;29.17;12.37;;;;;;;;;;5033339;28;20243;-81
2020/12/16 04:49:16;;;;;;;26.87;12.50;;;;;;;;;;5032139;28;20222;-81
2020/12/16 04:52:29;;;;;;;29.50;11.53;;;;;;;;;;5032563;28;20236;-81
2020/12/16 04:55:51;;;;;;;26.97;12.03;;;;;;;;;;5032434;28;20537;-81
2020/12/16 04:59:10;;;;;;;25.90;11.33;;;;;;;;;;5033423;28;20283;-79
2020/12/16 05:02:29;;;;;;;24.00;10.47;;;;;;;;;;5033919;28;20679;-78
2020/12/16 05:05:48;;;;;;;42.47;12.07;;;;;;;;;;5034570;28;20649;-78
2020/12/16 05:09:01;;;;;;;38.30;12.33;;;;;;;;;;5035622;28;20215;-78
2020/12/16 05:12:06;;;;;;;23.90;10.83;;;;;;;;;;5026329;28;20231;-77
2020/12/16 05:15:28;;;;;;;23.30;10.70;;;;;;;;;;5035509;28;20309;-78
2020/12/16 05:18:32;;;;;;;26.30;11.37;;;;;;;;;;5028014;28;20208;-78
2020/12/16 05:21:38;;;;;;;26.83;10.97;;;;;;;;;;5028916;28;20641;-78
2020/12/16 05:24:43;;;;;;;31.10;11.70;;;;;;;;;;5028741;28;20238;-78
2020/12/16 05:27:50;;;;;;;24.90;10.33;;;;;;;;;;5038753;28;20231;-78
2020/12/16 05:30:55;;;;;;;26.70;11.50;;;;;;;;;;5035036;28;20270;-78
2020/12/16 05:34:00;;;;;;;29.40;11.27;;;;;;;;;;5035192;28;20207;-78
2020/12/16 05:37:19;;;;;;;26.93;11.57;;;;;;;;;;5047044;28;20250;-77
2020/12/16 05:40:25;;;;;;;24.17;11.07;;;;;;;;;;5041548;28;20222;-79
2020/12/16 05:43:29;;;;;;;26.80;11.27;;;;;;;;;;5039880;28;20219;-77
2020/12/16 05:46:34;;;;;;;30.47;11.17;;;;;;;;;;5042334;28;20234;-78
2020/12/16 05:49:38;;;;;;;29.23;12.37;;;;;;;;;;5035729;28;20247;-78
2020/12/16 05:52:43;;;;;;;27.93;11.60;;;;;;;;;;5034985;28;20235;-78
2020/12/16 05:55:51;;;;;;;32.07;13.17;;;;;;;;;;5037595;28;20219;-78
2020/12/16 05:58:56;;;;;;;29.33;12.03;;;;;;;;;;5040463;28;20266;-78
2020/12/16 06:02:02;;;;;;;33.10;12.77;;;;;;;;;;5040681;28;20298;-79
2020/12/16 06:05:07;;;;;;;29.83;13.17;;;;;;;;;;5048102;28;20745;-78
2020/12/16 06:08:12;;;;;;;28.20;11.93;;;;;;;;;;5039214;28;20354;-78
2020/12/16 06:11:17;;;;;;;27.63;11.60;;;;;;;;;;5055838;28;20286;-77
2020/12/16 06:14:22;;;;;;;34.60;12.57;;;;;;;;;;5048687;28;20252;-79
2020/12/16 06:17:27;;;;;;;33.83;13.57;;;;;;;;;;5041058;28;20250;-78
2020/12/16 06:20:37;;;;;;;39.00;13.17;;;;;;;;;;5037086;28;20299;-78
2020/12/16 06:23:42;;;;;;;31.37;13.40;;;;;;;;;;5036366;28;20315;-78
2020/12/16 06:26:54;;;;;;;29.87;12.80;;;;;;;;;;5039242;28;20290;-79
2020/12/16 06:29:59;;;;;;;31.73;13.17;;;;;;;;;;5041670;28;20251;-79
2020/12/16 06:33:08;;;;;;;33.03;13.57;;;;;;;;;;5040537;28;20495;-78
2020/12/16 06:36:13;;;;;;;48.23;16.00;;;;;;;;;;5040004;28;20241;-78
2020/12/16 06:39:17;;;;;;;42.27;15.33;;;;;;;;;;5038644;28;20218;-79
2020/12/16 06:42:32;;;;;;;47.70;17.07;;;;;;;;;;5038083;28;20258;-78
2020/12/16 06:45:37;;;;;;;43.83;16.97;;;;;;;;;;5036715;28;20230;-79
2020/12/16 06:48:42;;;;;;;46.83;16.43;;;;;;;;;;5039368;28;20214;-79
2020/12/16 06:51:48;;;;;;;45.73;17.10;;;;;;;;;;5039687;28;20246;-79
2020/12/16 06:54:55;;;;;;;52.73;18.87;;;;;;;;;;5038923;28;20211;-79
2020/12/16 06:58:01;;;;;;;63.73;21.10;;;;;;;;;;5038927;28;20219;-80
2020/12/16 07:01:12;;;;;;;65.63;20.70;;;;;;;;;;5041533;28;20262;-77
2020/12/16 07:04:34;;;;;;;58.23;20.30;;;;;;;;;;5035532;28;20208;-78
2020/12/16 07:07:55;;;;;;;55.33;20.57;;;;;;;;;;5037354;28;20350;-78
2020/12/16 07:11:00;;;;;;;64.30;22.27;;;;;;;;;;5039217;28;20239;-79
2020/12/16 07:14:10;;;;;;;67.07;22.63;;;;;;;;;;5038786;28;20211;-78
2020/12/16 07:17:14;;;;;;;70.97;23.27;;;;;;;;;;5036525;28;20304;-79
2020/12/16 07:20:32;;;;;;;68.37;22.73;;;;;;;;;;5035992;28;20576;-79
2020/12/16 07:23:39;;;;;;;70.73;23.43;;;;;;;;;;5038312;28;20282;-78
2020/12/16 07:26:46;;;;;;;71.93;23.67;;;;;;;;;;5042627;28;20222;-78
2020/12/16 07:29:56;;;;;;;80.87;24.77;;;;;;;;;;5039736;28;20203;-79
2020/12/16 07:33:13;;;;;;;73.60;23.67;;;;;;;;;;5033879;28;20287;-79
2020/12/16 07:36:18;;;;;;;72.50;24.87;;;;;;;;;;5037728;28;20219;-77
2020/12/16 07:39:23;;;;;;;91.17;28.80;;;;;;;;;;5053431;28;20215;-78
2020/12/16 07:42:29;;;;;;;81.63;25.73;;;;;;;;;;5035689;28;20270;-79
2020/12/16 07:45:34;;;;;;;83.07;25.80;;;;;;;;;;5027418;28;20215;-78
2020/12/16 07:48:38;;;;;;;69.37;23.97;;;;;;;;;;5035691;28;20207;-79
2020/12/16 07:51:43;;;;;;;77.93;25.67;;;;;;;;;;5036098;28;20235;-79
2020/12/16 07:54:48;;;;;;;92.33;26.57;;;;;;;;;;5034839;28;20628;-79
2020/12/16 07:57:52;;;;;;;77.50;24.10;;;;;;;;;;5034653;28;20243;-79
2020/12/16 08:01:06;;;;;;;78.70;25.20;;;;;;;;;;5055282;28;20312;-78
2020/12/16 08:04:15;;;;;;;84.43;26.57;;;;;;;;;;5035859;28;20211;-79
2020/12/16 08:07:21;;;;;;;86.73;25.60;;;;;;;;;;5034424;28;20274;-79
2020/12/16 08:10:25;;;;;;;80.50;25.50;;;;;;;;;;5033840;28;20703;-79
2020/12/16 08:13:29;;;;;;;77.33;25.00;;;;;;;;;;5016719;28;20207;-79
2020/12/16 08:16:35;;;;;;;82.23;25.40;;;;;;;;;;5039818;28;20687;-79
2020/12/16 08:19:40;;;;;;;76.20;25.00;;;;;;;;;;5040885;28;20254;-79
2020/12/16 08:22:45;;;;;;;72.83;23.77;;;;;;;;;;5037997;28;20290;-77
2020/12/16 08:25:49;;;;;;;78.70;25.13;;;;;;;;;;5038110;28;20537;-77
2020/12/16 08:28:54;;;;;;;83.33;25.33;;;;;;;;;;5033451;28;20211;-77
2020/12/16 08:32:00;;;;;;;76.03;23.97;;;;;;;;;;5051400;28;20721;-77
2020/12/16 08:35:06;;;;;;;71.13;22.30;;;;;;;;;;5042451;28;20310;-78
2020/12/16 08:38:11;;;;;;;77.20;23.60;;;;;;;;;;5032607;28;20218;-77
2020/12/16 08:41:23;;;;;;;66.40;21.63;;;;;;;;;;5027175;28;20226;-77
2020/12/16 08:44:28;;;;;;;68.67;23.20;;;;;;;;;;5028175;28;20301;-77
2020/12/16 08:47:35;;;;;;;65.73;19.83;;;;;;;;;;5031462;28;20749;-78
2020/12/16 08:50:40;;;;;;;60.53;20.10;;;;;;;;;;5031534;28;20215;-79
2020/12/16 08:53:52;;;;;;;61.77;19.20;;;;;;;;;;5033663;28;20342;-78
2020/12/16 08:56:57;;;;;;;54.47;18.90;;;;;;;;;;5032495;28;20204;-79
2020/12/16 09:00:07;;;;;;;50.97;18.07;;;;;;;;;;5033548;28;20216;-78
2020/12/16 09:03:13;;;;;;;56.97;17.93;;;;;;;;;;5051002;28;20192;-78
2020/12/16 09:06:18;;;;;;;45.77;16.90;;;;;;;;;;5035095;28;20557;-79
2020/12/16 09:09:23;;;;;;;53.43;18.90;;;;;;;;;;5030196;28;20223;-78
2020/12/16 09:12:27;;;;;;;46.53;17.80;;;;;;;;;;5035863;28;20238;-78
2020/12/16 09:15:32;;;;;;;49.63;17.33;;;;;;;;;;5042955;28;20251;-78
2020/12/16 09:18:38;;;;;;;50.03;18.73;;;;;;;;;;5044243;28;20314;-78
2020/12/16 09:21:43;;;;;;;46.07;17.17;;;;;;;;;;5031471;28;20760;-78
2020/12/16 09:24:47;;;;;;;42.37;17.00;;;;;;;;;;5034453;28;20219;-78
2020/12/16 09:27:52;;;;;;;49.03;17.43;;;;;;;;;;5038012;28;20231;-78
2020/12/16 09:30:57;;;;;;;48.37;17.97;;;;;;;;;;5037406;28;20239;-78
2020/12/16 09:34:04;;;;;;;47.67;17.90;;;;;;;;;;5034182;28;20627;-77
2020/12/16 09:37:13;;;;;;;47.20;16.83;;;;;;;;;;5035451;28;20211;-77
2020/12/16 09:40:17;;;;;;;43.97;16.77;;;;;;;;;;5033375;28;20737;-77
2020/12/16 09:43:36;;;;;;;49.53;17.03;;;;;;;;;;5034328;28;20211;-77
2020/12/16 09:46:40;;;;;;;54.87;16.70;;;;;;;;;;5034981;28;20637;-78
2020/12/16 09:49:46;;;;;;;45.83;17.07;;;;;;;;;;5031030;28;20749;-78
2020/12/16 09:52:56;;;;;;;46.17;17.07;;;;;;;;;;5042496;28;20238;-77
2020/12/16 09:56:01;;;;;;;51.17;18.47;;;;;;;;;;5042324;28;20258;-79
2020/12/16 09:59:05;;;;;;;57.80;18.77;;;;;;;;;;5034255;28;20275;-78
2020/12/16 10:02:09;;;;;;;49.40;18.80;;;;;;;;;;5034337;28;20269;-78
2020/12/16 10:05:15;;;;;;;48.27;18.10;;;;;;;;;;5040900;28;20578;-78
2020/12/16 10:08:20;;;;;;;102.93;28.03;;;;;;;;;;5028736;28;20289;-78
2020/12/16 10:11:24;;;;;;;50.73;19.00;;;;;;;;;;5030800;28;20226;-76
2020/12/16 10:14:28;;;;;;;50.20;18.67;;;;;;;;;;5034306;28;20215;-78
2020/12/16 10:17:32;;;;;;;52.30;19.60;;;;;;;;;;5033869;28;20203;-78
2020/12/16 10:20:37;;;;;;;45.63;17.47;;;;;;;;;;5037422;28;20214;-77
2020/12/16 10:23:48;;;;;;;54.77;19.10;;;;;;;;;;5032164;28;20223;-77
2020/12/16 10:26:53;;;;;;;54.13;19.33;;;;;;;;;;5032575;28;20722;-77
2020/12/16 10:29:57;;;;;;;53.77;19.33;;;;;;;;;;5031005;28;20261;-77
2020/12/16 10:33:02;;;;;;;58.37;20.73;;;;;;;;;;5038077;28;20262;-78
2020/12/16 10:36:08;;;;;;;62.40;21.60;;;;;;;;;;5040594;28;20428;-78
2020/12/16 10:39:12;;;;;;;73.70;23.57;;;;;;;;;;5031660;28;20223;-77
2020/12/16 10:42:17;;;;;;;63.37;21.70;;;;;;;;;;5035038;28;20235;-78
2020/12/16 10:45:22;;;;;;;56.93;21.40;;;;;;;;;;5044786;28;20287;-78
2020/12/16 10:48:27;;;;;;;70.53;21.90;;;;;;;;;;5034106;28;20457;-78
2020/12/16 10:51:32;;;;;;;63.93;21.83;;;;;;;;;;5035192;28;20235;-80
2020/12/16 10:54:37;;;;;;;60.87;21.83;;;;;;;;;;5038300;28;20219;-76
2020/12/16 10:57:42;;;;;;;61.20;22.33;;;;;;;;;;5031253;28;20315;-76
2020/12/16 11:00:47;;;;;;;55.87;20.90;;;;;;;;;;5032718;28;20266;-77
2020/12/16 11:03:51;;;;;;;61.90;21.57;;;;;;;;;;5033088;28;20247;-78
2020/12/16 11:06:56;;;;;;;77.30;24.63;;;;;;;;;;5040027;28;20234;-78
2020/12/16 11:10:01;;;;;;;67.87;22.80;;;;;;;;;;5032732;28;20780;-77
2020/12/16 11:13:06;;;;;;;60.63;22.50;;;;;;;;;;5030902;28;20580;-77
2020/12/16 11:16:10;;;;;;;61.67;22.30;;;;;;;;;;5029438;28;20311;-77
2020/12/16 11:19:16;;;;;;;62.33;22.17;;;;;;;;;;5033208;28;20243;-78
2020/12/16 11:22:20;;;;;;;62.40;21.70;;;;;;;;;;5034586;28;20318;-79
2020/12/16 11:25:25;;;;;;;63.10;22.10;;;;;;;;;;5031835;28;20250;-78
2020/12/16 11:28:30;;;;;;;59.10;22.10;;;;;;;;;;5056010;28;20243;-77
2020/12/16 11:31:40;;;;;;;61.83;21.87;;;;;;;;;;5038534;28;20251;-77
2020/12/16 11:34:46;;;;;;;63.43;21.47;;;;;;;;;;5032768;28;20196;-78
2020/12/16 11:37:51;;;;;;;57.87;23.30;;;;;;;;;;5036529;28;20208;-77
2020/12/16 11:40:55;;;;;;;56.13;21.10;;;;;;;;;;5035305;28;20254;-77
2020/12/16 11:44:01;;;;;;;54.70;20.70;;;;;;;;;;5029004;28;20216;-77
2020/12/16 11:47:06;;;;;;;60.07;22.50;;;;;;;;;;5032378;28;20227;-78
2020/12/16 11:50:11;;;;;;;62.83;21.30;;;;;;;;;;5032939;28;20630;-77
2020/12/16 11:53:16;;;;;;;59.87;21.87;;;;;;;;;;5033068;28;20227;-77
2020/12/16 11:56:20;;;;;;;59.93;21.80;;;;;;;;;;5032705;28;20243;-79
2020/12/16 11:59:26;;;;;;;60.33;21.30;;;;;;;;;;5031365;28;20212;-76
2020/12/16 12:02:30;;;;;;;58.50;21.83;;;;;;;;;;5033777;28;20231;-76
2020/12/16 12:05:34;;;;;;;52.57;20.07;;;;;;;;;;5036575;28;20223;-78
2020/12/16 12:08:39;;;;;;;61.43;21.10;;;;;;;;;;5039290;28;20305;-78
2020/12/16 12:11:45;;;;;;;62.50;21.47;;;;;;;;;;5042484;28;20234;-78
2020/12/16 12:14:50;;;;;;;67.13;21.83;;;;;;;;;;5036837;28;20207;-79
2020/12/16 12:17:55;;;;;;;60.93;21.40;;;;;;;;;;5037498;28;20299;-79
2020/12/16 12:20:59;;;;;;;61.20;22.27;;;;;;;;;;5034139;28;20269;-77
2020/12/16 12:24:04;;;;;;;60.37;21.40;;;;;;;;;;5035050;28;20214;-77
2020/12/16 12:27:08;;;;;;;55.40;22.03;;;;;;;;;;5028396;28;20270;-77
2020/12/16 12:30:13;;;;;;;64.07;21.37;;;;;;;;;;5035147;28;20223;-77
2020/12/16 12:33:18;;;;;;;60.23;21.13;;;;;;;;;;5030822;28;20246;-77
2020/12/16 12:36:23;;;;;;;69.53;23.20;;;;;;;;;;5033734;28;20255;-77
2020/12/16 12:39:27;;;;;;;61.13;22.03;;;;;;;;;;5028852;28;20215;-77
2020/12/16 12:42:32;;;;;;;65.63;23.03;;;;;;;;;;5032114;28;20608;-76
2020/12/16 12:45:37;;;;;;;60.53;22.43;;;;;;;;;;5036128;28;20254;-76
2020/12/16 12:48:42;;;;;;;56.50;22.43;;;;;;;;;;5038898;28;20240;-77
2020/12/16 12:51:49;;;;;;;64.17;22.77;;;;;;;;;;5036006;28;20376;-77
2020/12/16 12:54:54;;;;;;;55.40;21.93;;;;;;;;;;5036303;28;20574;-76
2020/12/16 12:58:08;;;;;;;65.23;23.60;;;;;;;;;;5035028;28;20215;-75
2020/12/16 13:01:13;;;;;;;62.17;22.60;;;;;;;;;;5026339;28;20239;-77
2020/12/16 13:04:19;;;;;;;57.50;21.20;;;;;;;;;;5031011;28;20199;-79
2020/12/16 13:07:24;;;;;;;61.97;23.03;;;;;;;;;;5031418;28;20208;-77
2020/12/16 13:10:29;;;;;;;59.60;25.60;;;;;;;;;;5035520;28;20718;-78
2020/12/16 13:13:33;;;;;;;64.87;23.17;;;;;;;;;;5037169;28;20195;-78
2020/12/16 13:16:39;;;;;;;68.67;24.73;;;;;;;;;;5036946;28;20263;-78
2020/12/16 13:19:43;;;;;;;69.93;25.07;;;;;;;;;;5034074;28;20203;-78
2020/12/16 13:22:48;;;;;;;66.23;25.47;;;;;;;;;;5026538;28;20258;-77
2020/12/16 13:25:52;;;;;;;64.77;24.80;;;;;;;;;;5036104;28;20270;-77
2020/12/16 13:28:57;;;;;;;66.23;24.23;;;;;;;;;;5033420;28;20271;-77
2020/12/16 13:32:02;;;;;;;70.17;24.30;;;;;;;;;;5033419;28;20243;-77
2020/12/16 13:35:06;;;;;;;65.93;24.47;;;;;;;;;;5033511;28;20644;-78
2020/12/16 13:38:11;;;;;;;68.53;25.03;;;;;;;;;;5033886;28;20311;-78
2020/12/16 13:41:15;;;;;;;68.67;23.43;;;;;;;;;;5034435;28;20239;-77
2020/12/16 13:44:20;;;;;;;76.77;24.03;;;;;;;;;;5032798;28;20294;-77
2020/12/16 13:47:25;;;;;;;71.57;25.33;;;;;;;;;;5030795;28;20231;-77
2020/12/16 13:50:31;;;;;;;72.20;24.67;;;;;;;;;;5026880;28;20250;-78
2020/12/16 13:53:35;;;;;;;74.60;25.87;;;;;;;;;;5024133;28;20629;-78
2020/12/16 13:56:40;;;;;;;87.40;27.13;;;;;;;;;;5030390;28;20286;-78
2020/12/16 13:59:44;;;;;;;70.90;26.90;;;;;;;;;;5031960;28;20212;-78
2020/12/16 14:02:50;;;;;;;86.27;27.37;;;;;;;;;;5028338;28;20572;-78
2020/12/16 14:05:55;;;;;;;80.43;26.83;;;;;;;;;;5032243;28;20235;-78
2020/12/16 14:09:00;;;;;;;80.37;27.40;;;;;;;;;;5042891;28;20211;-77
2020/12/16 14:12:04;;;;;;;80.53;28.30;;;;;;;;;;5032852;28;20370;-78
2020/12/16 14:15:09;;;;;;;79.77;26.97;;;;;;;;;;5031970;28;20284;-78
2020/12/16 14:18:14;;;;;;;76.93;27.63;;;;;;;;;;5035686;28;20195;-78
2020/12/16 14:21:19;;;;;;;79.20;26.07;;;;;;;;;;5034475;28;20259;-78
2020/12/16 14:24:23;;;;;;;81.83;28.73;;;;;;;;;;5034988;28;20640;-78
2020/12/16 14:27:27;;;;;;;83.13;28.33;;;;;;;;;;5036110;28;20231;-77
2020/12/16 14:30:32;;;;;;;88.73;28.57;;;;;;;;;;5034410;28;20215;-77
2020/12/16 14:33:37;;;;;;;91.73;27.97;;;;;;;;;;5036727;28;20194;-77
2020/12/16 14:36:45;;;;;;;77.03;27.03;;;;;;;;;;5036218;28;20292;-78
2020/12/16 14:39:51;;;;;;;86.97;27.67;;;;;;;;;;5038044;28;20718;-75
2020/12/16 14:42:57;;;;;;;77.83;25.07;;;;;;;;;;5036289;28;20231;-76
2020/12/16 14:46:01;;;;;;;77.87;24.57;;;;;;;;;;5030989;28;20214;-76
2020/12/16 14:49:06;;;;;;;74.60;25.00;;;;;;;;;;5030488;28;20203;-76
2020/12/16 14:52:11;;;;;;;87.67;26.77;;;;;;;;;;5035300;28;20282;-76
2020/12/16 14:55:18;;;;;;;78.93;25.77;;;;;;;;;;5054145;28;20286;-77
2020/12/16 14:58:22;;;;;;;77.13;25.50;;;;;;;;;;5035135;28;20216;-75
2020/12/16 15:01:27;;;;;;;77.63;25.53;;;;;;;;;;5034486;28;20243;-76
2020/12/16 15:04:33;;;;;;;82.33;26.40;;;;;;;;;;5036638;28;20191;-77
2020/12/16 15:07:37;;;;;;;83.10;27.07;;;;;;;;;;5036737;28;20214;-77
2020/12/16 15:10:42;;;;;;;84.70;25.80;;;;;;;;;;5037576;28;20242;-76
2020/12/16 15:13:46;;;;;;;80.57;26.23;;;;;;;;;;5038560;28;20238;-76
2020/12/16 15:16:50;;;;;;;85.23;26.37;;;;;;;;;;5036280;28;20195;-76
2020/12/16 15:19:56;;;;;;;82.53;26.50;;;;;;;;;;5037988;28;20287;-76
2020/12/16 15:23:00;;;;;;;83.77;26.10;;;;;;;;;;5035882;28;20198;-77
2020/12/16 15:26:05;;;;;;;82.43;26.47;;;;;;;;;;5037135;28;20235;-77
2020/12/16 15:29:09;;;;;;;78.57;27.30;;;;;;;;;;5036052;28;20242;-77
2020/12/16 15:32:13;;;;;;;84.60;27.27;;;;;;;;;;5036663;28;20231;-77
2020/12/16 15:35:19;;;;;;;92.50;30.13;;;;;;;;;;5017810;28;20239;-77
2020/12/16 15:38:23;;;;;;;83.50;26.07;;;;;;;;;;5035543;28;20208;-77
2020/12/16 15:41:28;;;;;;;80.87;25.90;;;;;;;;;;5038661;28;20604;-76
2020/12/16 15:44:33;;;;;;;85.33;26.77;;;;;;;;;;5046459;28;20207;-77
2020/12/16 15:47:38;;;;;;;82.53;26.30;;;;;;;;;;5038836;28;20258;-77
2020/12/16 15:50:43;;;;;;;81.17;25.77;;;;;;;;;;5037135;28;20235;-76
2020/12/16 15:53:48;;;;;;;76.93;25.50;;;;;;;;;;5035624;28;20586;-77
2020/12/16 15:56:52;;;;;;;85.47;26.23;;;;;;;;;;5035129;28;20753;-77
2020/12/16 15:59:57;;;;;;;80.33;25.63;;;;;;;;;;5036773;28;20254;-79
2020/12/16 16:03:02;;;;;;;75.03;26.13;;;;;;;;;;5037398;28;20261;-81
2020/12/16 16:06:08;;;;;;;74.60;24.33;;;;;;;;;;5036718;28;20203;-77
2020/12/16 16:09:12;;;;;;;76.27;26.27;;;;;;;;;;5034860;28;20270;-77
2020/12/16 16:12:17;;;;;;;71.27;25.43;;;;;;;;;;5032969;28;20239;-77
2020/12/16 16:15:21;;;;;;;65.33;21.97;;;;;;;;;;5028213;28;20302;-77
2020/12/16 16:18:26;;;;;;;64.80;24.20;;;;;;;;;;5030310;28;20191;-78
2020/12/16 16:21:33;;;;;;;75.43;24.07;;;;;;;;;;5029315;28;20285;-77
2020/12/16 16:24:38;;;;;;;67.03;23.57;;;;;;;;;;5033016;28;20649;-77
2020/12/16 16:27:42;;;;;;;69.20;24.17;;;;;;;;;;5031343;28;20243;-77
2020/12/16 16:30:48;;;;;;;65.03;22.73;;;;;;;;;;5034154;28;20231;-78
2020/12/16 16:33:53;;;;;;;62.07;23.47;;;;;;;;;;5030055;28;20228;-77
2020/12/16 16:36:58;;;;;;;68.10;23.67;;;;;;;;;;5034542;28;20250;-78
2020/12/16 16:40:03;;;;;;;68.33;22.33;;;;;;;;;;5035136;28;20211;-78
2020/12/16 16:43:08;;;;;;;74.97;25.47;;;;;;;;;;5037477;28;20218;-78
2020/12/16 16:46:12;;;;;;;66.73;24.43;;;;;;;;;;5034808;28;20228;-78
2020/12/16 16:49:17;;;;;;;75.10;24.27;;;;;;;;;;5024203;28;20617;-78
2020/12/16 16:52:23;;;;;;;73.97;24.63;;;;;;;;;;5038658;28;20227;-78
2020/12/16 16:55:27;;;;;;;70.13;24.90;;;;;;;;;;5029674;28;20266;-77
2020/12/16 16:58:32;;;;;;;68.73;24.20;;;;;;;;;;5031722;28;20566;-79
2020/12/16 17:01:39;;;;;;;73.77;25.53;;;;;;;;;;5040376;28;20243;-80
2020/12/16 17:04:44;;;;;;;81.53;27.80;;;;;;;;;;5040093;28;20298;-81
2020/12/16 17:07:50;;;;;;;78.63;26.60;;;;;;;;;;5053725;28;20254;-79
2020/12/16 17:10:55;;;;;;;77.53;25.47;;;;;;;;;;5042171;28;20223;-79
2020/12/16 17:13:59;;;;;;;71.70;24.33;;;;;;;;;;5033096;28;20211;-80
2020/12/16 17:17:04;;;;;;;72.67;24.10;;;;;;;;;;5030673;28;20600;-78
2020/12/16 17:20:09;;;;;;;77.80;25.03;;;;;;;;;;5041912;28;20267;-77
2020/12/16 17:23:14;;;;;;;72.50;24.27;;;;;;;;;;5044299;28;20209;-78
2020/12/16 17:26:19;;;;;;;79.57;25.20;;;;;;;;;;5039139;28;20207;-79
2020/12/16 17:29:23;;;;;;;71.90;23.47;;;;;;;;;;5037162;28;20230;-79
2020/12/16 17:32:27;;;;;;;79.73;25.20;;;;;;;;;;5033247;28;20678;-78
2020/12/16 17:35:32;;;;;;;75.77;23.37;;;;;;;;;;5031250;28;20223;-78
2020/12/16 17:38:37;;;;;;;80.60;26.63;;;;;;;;;;5052752;28;20230;-78
2020/12/16 17:41:45;;;;;;;72.57;24.57;;;;;;;;;;5035863;28;20231;-77
2020/12/16 17:44:50;;;;;;;72.37;24.10;;;;;;;;;;5051428;28;20219;-78
2020/12/16 17:47:54;;;;;;;70.27;23.77;;;;;;;;;;5042405;28;20230;-79
2020/12/16 17:50:59;;;;;;;64.20;22.37;;;;;;;;;;5032908;28;20231;-81
2020/12/16 17:54:05;;;;;;;67.10;23.83;;;;;;;;;;5040125;28;20231;-79
2020/12/16 17:57:09;;;;;;;66.80;22.77;;;;;;;;;;5047808;28;20219;-79
2020/12/16 18:00:14;;;;;;;73.73;24.20;;;;;;;;;;5043538;28;20300;-78
2020/12/16 18:03:19;;;;;;;71.30;24.03;;;;;;;;;;5037213;28;20208;-81
2020/12/16 18:06:24;;;;;;;63.97;22.00;;;;;;;;;;5048024;28;20223;-81